Lyerly, Georgia
Current Conditions -  °F | °C
As of 12:53 AM on Monday 22 Dec 2014 (Local Time) from KRMG Reporting Station
Overcast Overcast  
Wind Chill: 50°   Ceiling: 2000
Heat Index: 50°   Visibility: 10mi
Dew Point: 43°   Wind: 5mph
Humidity: 77%   Direction: 120°ESE
Pressure: 30.06"   Gusts: NA
Location:  34.4°N, 85.4°W
Report Text: KRMG 220553Z AUTO 12004KT 10SM OVC020 10/06 A3006 RMK AO2 SLP176 T01000061 10100 20094 58009
Loading
Personal Weather Stations






























Interactive Weather Map New forecast layout! Learn more

10-Day Weather Forecast

Advertisements
Track Severe Weather on mobile